sensor_id;sensor_type;location;lat;lon;timestamp;P1;durP1;ratioP1;P2;durP2;ratioP2
26936;SDS011;14495;48.116;11.676;2022-08-20T00:00:47;12.45;;;7.68;;
26936;SDS011;14495;48.116;11.676;2022-08-20T00:03:18;10.93;;;7.90;;
26936;SDS011;14495;48.116;11.676;2022-08-20T00:05:48;10.20;;;7.72;;
26936;SDS011;14495;48.116;11.676;2022-08-20T00:08:18;11.10;;;8.38;;
26936;SDS011;14495;48.116;11.676;2022-08-20T00:10:46;11.55;;;7.68;;
26936;SDS011;14495;48.116;11.676;2022-08-20T00:13:14;11.57;;;7.78;;
26936;SDS011;14495;48.116;11.676;2022-08-20T00:15:42;11.40;;;7.80;;
26936;SDS011;14495;48.116;11.676;2022-08-20T00:18:08;11.63;;;8.48;;
26936;SDS011;14495;48.116;11.676;2022-08-20T00:20:35;11.50;;;8.13;;
26936;SDS011;14495;48.116;11.676;2022-08-20T00:23:03;9.75;;;7.65;;
26936;SDS011;14495;48.116;11.676;2022-08-20T00:25:29;12.90;;;7.82;;
26936;SDS011;14495;48.116;11.676;2022-08-20T00:27:55;12.10;;;8.05;;
26936;SDS011;14495;48.116;11.676;2022-08-20T00:30:21;11.88;;;7.35;;
26936;SDS011;14495;48.116;11.676;2022-08-20T00:32:51;10.95;;;8.15;;
26936;SDS011;14495;48.116;11.676;2022-08-20T00:37:45;13.02;;;8.07;;
26936;SDS011;14495;48.116;11.676;2022-08-20T00:40:13;12.45;;;7.63;;
26936;SDS011;14495;48.116;11.676;2022-08-20T00:42:42;11.70;;;7.80;;
26936;SDS011;14495;48.116;11.676;2022-08-20T00:45:13;10.27;;;7.63;;
26936;SDS011;14495;48.116;11.676;2022-08-20T00:47:39;9.38;;;7.15;;
26936;SDS011;14495;48.116;11.676;2022-08-20T00:50:06;10.52;;;7.07;;
26936;SDS011;14495;48.116;11.676;2022-08-20T00:52:33;10.80;;;7.68;;
26936;SDS011;14495;48.116;11.676;2022-08-20T00:54:59;11.25;;;8.20;;
26936;SDS011;14495;48.116;11.676;2022-08-20T00:57:28;11.38;;;7.68;;
26936;SDS011;14495;48.116;11.676;2022-08-20T01:00:27;10.82;;;7.35;;
26936;SDS011;14495;48.116;11.676;2022-08-20T01:02:58;10.57;;;8.43;;
26936;SDS011;14495;48.116;11.676;2022-08-20T01:05:24;12.15;;;8.15;;
26936;SDS011;14495;48.116;11.676;2022-08-20T01:07:50;13.65;;;9.00;;
26936;SDS011;14495;48.116;11.676;2022-08-20T01:10:23;13.77;;;8.90;;
26936;SDS011;14495;48.116;11.676;2022-08-20T01:12:54;15.25;;;9.35;;
26936;SDS011;14495;48.116;11.676;2022-08-20T01:15:22;13.45;;;8.80;;
26936;SDS011;14495;48.116;11.676;2022-08-20T01:17:51;12.35;;;8.88;;
26936;SDS011;14495;48.116;11.676;2022-08-20T01:20:23;14.82;;;8.88;;
26936;SDS011;14495;48.116;11.676;2022-08-20T01:23:05;13.20;;;9.13;;
26936;SDS011;14495;48.116;11.676;2022-08-20T01:31:06;12.65;;;9.25;;
26936;SDS011;14495;48.116;11.676;2022-08-20T01:33:34;14.40;;;9.38;;
26936;SDS011;14495;48.116;11.676;2022-08-20T01:36:00;17.52;;;9.90;;
26936;SDS011;14495;48.116;11.676;2022-08-20T01:38:26;16.05;;;10.43;;
26936;SDS011;14495;48.116;11.676;2022-08-20T01:43:44;15.13;;;9.90;;
26936;SDS011;14495;48.116;11.676;2022-08-20T01:46:11;15.95;;;10.02;;
26936;SDS011;14495;48.116;11.676;2022-08-20T01:48:37;15.23;;;9.77;;
26936;SDS011;14495;48.116;11.676;2022-08-20T01:51:11;16.75;;;10.48;;
26936;SDS011;14495;48.116;11.676;2022-08-20T01:53:42;18.77;;;11.15;;
26936;SDS011;14495;48.116;11.676;2022-08-20T01:56:11;17.35;;;10.88;;
26936;SDS011;14495;48.116;11.676;2022-08-20T01:58:40;16.73;;;10.93;;
26936;SDS011;14495;48.116;11.676;2022-08-20T02:01:20;17.77;;;11.25;;
26936;SDS011;14495;48.116;11.676;2022-08-20T02:03:49;19.35;;;11.52;;
26936;SDS011;14495;48.116;11.676;2022-08-20T02:06:15;18.10;;;10.93;;
26936;SDS011;14495;48.116;11.676;2022-08-20T02:08:41;16.95;;;12.02;;
26936;SDS011;14495;48.116;11.676;2022-08-20T02:11:07;18.33;;;10.70;;
26936;SDS011;14495;48.116;11.676;2022-08-20T02:13:32;16.70;;;10.75;;
26936;SDS011;14495;48.116;11.676;2022-08-20T02:15:58;16.65;;;11.00;;
26936;SDS011;14495;48.116;11.676;2022-08-20T02:18:23;20.33;;;11.40;;
26936;SDS011;14495;48.116;11.676;2022-08-20T02:20:49;17.13;;;11.05;;
26936;SDS011;14495;48.116;11.676;2022-08-20T02:23:15;18.55;;;11.88;;
26936;SDS011;14495;48.116;11.676;2022-08-20T02:25:41;16.48;;;11.20;;
26936;SDS011;14495;48.116;11.676;2022-08-20T02:28:10;19.17;;;11.40;;
26936;SDS011;14495;48.116;11.676;2022-08-20T02:30:40;16.92;;;11.52;;
26936;SDS011;14495;48.116;11.676;2022-08-20T02:33:08;18.77;;;11.88;;
26936;SDS011;14495;48.116;11.676;2022-08-20T02:35:37;18.42;;;12.15;;
26936;SDS011;14495;48.116;11.676;2022-08-20T02:38:04;17.88;;;11.45;;
26936;SDS011;14495;48.116;11.676;2022-08-20T02:40:30;20.77;;;12.73;;
26936;SDS011;14495;48.116;11.676;2022-08-20T02:42:55;21.98;;;12.98;;
26936;SDS011;14495;48.116;11.676;2022-08-20T02:45:21;18.70;;;11.98;;
26936;SDS011;14495;48.116;11.676;2022-08-20T02:47:48;19.35;;;12.13;;
26936;SDS011;14495;48.116;11.676;2022-08-20T02:50:17;17.67;;;11.40;;
26936;SDS011;14495;48.116;11.676;2022-08-20T02:52:44;21.30;;;11.70;;
26936;SDS011;14495;48.116;11.676;2022-08-20T02:55:10;19.20;;;12.18;;
26936;SDS011;14495;48.116;11.676;2022-08-20T02:57:36;18.48;;;12.38;;
26936;SDS011;14495;48.116;11.676;2022-08-20T03:00:03;20.00;;;13.05;;
26936;SDS011;14495;48.116;11.676;2022-08-20T03:02:35;18.85;;;12.27;;
26936;SDS011;14495;48.116;11.676;2022-08-20T03:05:00;19.67;;;12.32;;
26936;SDS011;14495;48.116;11.676;2022-08-20T03:07:26;19.90;;;12.52;;
26936;SDS011;14495;48.116;11.676;2022-08-20T03:09:51;20.05;;;12.85;;
26936;SDS011;14495;48.116;11.676;2022-08-20T03:12:16;18.90;;;11.73;;
26936;SDS011;14495;48.116;11.676;2022-08-20T03:14:42;19.48;;;12.52;;
26936;SDS011;14495;48.116;11.676;2022-08-20T03:17:07;22.00;;;13.45;;
26936;SDS011;14495;48.116;11.676;2022-08-20T03:19:33;22.08;;;11.93;;
26936;SDS011;14495;48.116;11.676;2022-08-20T03:21:58;18.08;;;12.23;;
26936;SDS011;14495;48.116;11.676;2022-08-20T03:24:23;20.83;;;13.07;;
26936;SDS011;14495;48.116;11.676;2022-08-20T03:26:48;23.00;;;12.35;;
26936;SDS011;14495;48.116;11.676;2022-08-20T03:29:14;19.55;;;12.73;;
26936;SDS011;14495;48.116;11.676;2022-08-20T03:31:39;19.70;;;13.25;;
26936;SDS011;14495;48.116;11.676;2022-08-20T03:34:04;21.58;;;13.38;;
26936;SDS011;14495;48.116;11.676;2022-08-20T03:36:30;19.15;;;11.98;;
26936;SDS011;14495;48.116;11.676;2022-08-20T03:38:56;18.27;;;12.13;;
26936;SDS011;14495;48.116;11.676;2022-08-20T03:41:24;23.98;;;13.25;;
26936;SDS011;14495;48.116;11.676;2022-08-20T03:43:50;25.13;;;13.40;;
26936;SDS011;14495;48.116;11.676;2022-08-20T03:46:15;22.10;;;12.77;;
26936;SDS011;14495;48.116;11.676;2022-08-20T03:48:41;20.38;;;12.73;;
26936;SDS011;14495;48.116;11.676;2022-08-20T03:51:06;20.55;;;12.52;;
26936;SDS011;14495;48.116;11.676;2022-08-20T03:53:31;21.17;;;13.25;;
26936;SDS011;14495;48.116;11.676;2022-08-20T03:56:00;17.05;;;11.40;;
26936;SDS011;14495;48.116;11.676;2022-08-20T03:58:29;22.42;;;12.82;;
26936;SDS011;14495;48.116;11.676;2022-08-20T04:00:55;20.90;;;12.63;;
26936;SDS011;14495;48.116;11.676;2022-08-20T04:03:21;22.80;;;13.50;;
26936;SDS011;14495;48.116;11.676;2022-08-20T04:05:47;22.13;;;13.35;;
26936;SDS011;14495;48.116;11.676;2022-08-20T04:08:23;21.38;;;13.00;;
26936;SDS011;14495;48.116;11.676;2022-08-20T04:10:52;23.40;;;13.48;;
26936;SDS011;14495;48.116;11.676;2022-08-20T04:13:19;20.70;;;12.98;;
26936;SDS011;14495;48.116;11.676;2022-08-20T04:15:46;21.20;;;12.38;;
26936;SDS011;14495;48.116;11.676;2022-08-20T04:18:12;22.88;;;13.23;;
26936;SDS011;14495;48.116;11.676;2022-08-20T04:20:40;20.70;;;12.73;;
26936;SDS011;14495;48.116;11.676;2022-08-20T04:23:07;19.08;;;11.73;;
26936;SDS011;14495;48.116;11.676;2022-08-20T04:25:33;22.38;;;13.10;;
26936;SDS011;14495;48.116;11.676;2022-08-20T04:28:05;20.63;;;12.10;;
26936;SDS011;14495;48.116;11.676;2022-08-20T04:30:32;17.67;;;12.00;;
26936;SDS011;14495;48.116;11.676;2022-08-20T04:32:58;20.92;;;12.32;;
26936;SDS011;14495;48.116;11.676;2022-08-20T04:35:24;19.15;;;12.43;;
26936;SDS011;14495;48.116;11.676;2022-08-20T04:38:04;19.27;;;13.00;;
26936;SDS011;14495;48.116;11.676;2022-08-20T04:40:32;23.33;;;14.65;;
26936;SDS011;14495;48.116;11.676;2022-08-20T04:43:17;19.42;;;12.00;;
26936;SDS011;14495;48.116;11.676;2022-08-20T04:48:16;17.92;;;11.30;;
26936;SDS011;14495;48.116;11.676;2022-08-20T04:50:43;19.50;;;12.68;;
26936;SDS011;14495;48.116;11.676;2022-08-20T04:53:11;19.08;;;11.98;;
26936;SDS011;14495;48.116;11.676;2022-08-20T04:55:40;18.00;;;12.02;;
26936;SDS011;14495;48.116;11.676;2022-08-20T04:58:07;18.20;;;11.70;;
26936;SDS011;14495;48.116;11.676;2022-08-20T05:00:35;22.05;;;12.98;;
26936;SDS011;14495;48.116;11.676;2022-08-20T05:03:01;19.60;;;12.48;;
26936;SDS011;14495;48.116;11.676;2022-08-20T05:05:26;24.83;;;11.82;;
26936;SDS011;14495;48.116;11.676;2022-08-20T05:07:52;19.95;;;11.52;;
26936;SDS011;14495;48.116;11.676;2022-08-20T05:10:18;19.48;;;11.63;;
26936;SDS011;14495;48.116;11.676;2022-08-20T05:12:44;17.85;;;11.38;;
26936;SDS011;14495;48.116;11.676;2022-08-20T05:15:10;19.08;;;11.88;;
26936;SDS011;14495;48.116;11.676;2022-08-20T05:17:38;20.75;;;12.30;;
26936;SDS011;14495;48.116;11.676;2022-08-20T05:20:07;20.17;;;11.68;;
26936;SDS011;14495;48.116;11.676;2022-08-20T05:22:35;18.80;;;11.45;;
26936;SDS011;14495;48.116;11.676;2022-08-20T05:25:01;17.83;;;11.60;;
26936;SDS011;14495;48.116;11.676;2022-08-20T05:27:28;22.10;;;12.23;;
26936;SDS011;14495;48.116;11.676;2022-08-20T05:29:58;18.58;;;11.18;;
26936;SDS011;14495;48.116;11.676;2022-08-20T05:32:24;18.02;;;11.32;;
26936;SDS011;14495;48.116;11.676;2022-08-20T05:34:50;18.20;;;10.77;;
26936;SDS011;14495;48.116;11.676;2022-08-20T05:37:15;19.23;;;11.50;;
26936;SDS011;14495;48.116;11.676;2022-08-20T05:39:42;16.27;;;11.02;;
26936;SDS011;14495;48.116;11.676;2022-08-20T05:42:08;17.30;;;11.30;;
26936;SDS011;14495;48.116;11.676;2022-08-20T05:44:35;20.25;;;11.38;;
26936;SDS011;14495;48.116;11.676;2022-08-20T05:47:01;18.25;;;11.82;;
26936;SDS011;14495;48.116;11.676;2022-08-20T05:49:28;15.77;;;10.85;;
26936;SDS011;14495;48.116;11.676;2022-08-20T05:51:54;16.50;;;10.82;;
26936;SDS011;14495;48.116;11.676;2022-08-20T05:54:20;16.60;;;11.27;;
26936;SDS011;14495;48.116;11.676;2022-08-20T05:56:45;21.20;;;10.95;;
26936;SDS011;14495;48.116;11.676;2022-08-20T05:59:11;16.70;;;10.70;;
26936;SDS011;14495;48.116;11.676;2022-08-20T06:01:38;16.10;;;10.60;;
26936;SDS011;14495;48.116;11.676;2022-08-20T06:04:04;14.95;;;10.40;;
26936;SDS011;14495;48.116;11.676;2022-08-20T06:06:50;16.95;;;10.75;;
26936;SDS011;14495;48.116;11.676;2022-08-20T06:09:29;16.27;;;11.02;;
26936;SDS011;14495;48.116;11.676;2022-08-20T06:11:55;14.88;;;10.13;;
26936;SDS011;14495;48.116;11.676;2022-08-20T06:14:23;14.93;;;9.52;;
26936;SDS011;14495;48.116;11.676;2022-08-20T06:16:49;14.98;;;10.45;;
26936;SDS011;14495;48.116;11.676;2022-08-20T06:19:15;17.50;;;11.32;;
26936;SDS011;14495;48.116;11.676;2022-08-20T06:21:40;15.27;;;9.45;;
26936;SDS011;14495;48.116;11.676;2022-08-20T06:24:06;15.88;;;9.88;;
26936;SDS011;14495;48.116;11.676;2022-08-20T06:26:31;11.70;;;8.63;;
26936;SDS011;14495;48.116;11.676;2022-08-20T06:28:58;16.63;;;9.63;;
26936;SDS011;14495;48.116;11.676;2022-08-20T06:31:24;13.25;;;9.07;;
26936;SDS011;14495;48.116;11.676;2022-08-20T06:33:51;13.60;;;9.93;;
26936;SDS011;14495;48.116;11.676;2022-08-20T06:36:16;13.40;;;9.40;;
26936;SDS011;14495;48.116;11.676;2022-08-20T06:38:42;12.27;;;8.65;;
26936;SDS011;14495;48.116;11.676;2022-08-20T06:41:08;14.05;;;9.02;;
26936;SDS011;14495;48.116;11.676;2022-08-20T06:43:33;14.98;;;9.45;;
26936;SDS011;14495;48.116;11.676;2022-08-20T06:45:59;12.32;;;8.25;;
26936;SDS011;14495;48.116;11.676;2022-08-20T06:48:24;12.73;;;8.32;;
26936;SDS011;14495;48.116;11.676;2022-08-20T06:50:49;16.38;;;8.57;;
26936;SDS011;14495;48.116;11.676;2022-08-20T06:53:16;11.50;;;8.20;;
26936;SDS011;14495;48.116;11.676;2022-08-20T06:55:45;12.23;;;8.70;;
26936;SDS011;14495;48.116;11.676;2022-08-20T06:58:14;15.77;;;9.32;;
26936;SDS011;14495;48.116;11.676;2022-08-20T07:00:40;11.18;;;8.80;;
26936;SDS011;14495;48.116;11.676;2022-08-20T07:03:07;12.15;;;8.38;;
26936;SDS011;14495;48.116;11.676;2022-08-20T07:05:34;10.52;;;8.02;;
26936;SDS011;14495;48.116;11.676;2022-08-20T07:08:01;10.20;;;7.65;;
26936;SDS011;14495;48.116;11.676;2022-08-20T07:10:28;11.38;;;8.82;;
26936;SDS011;14495;48.116;11.676;2022-08-20T07:12:54;12.73;;;7.47;;
26936;SDS011;14495;48.116;11.676;2022-08-20T07:15:21;12.77;;;7.55;;
26936;SDS011;14495;48.116;11.676;2022-08-20T07:17:49;9.88;;;7.05;;
26936;SDS011;14495;48.116;11.676;2022-08-20T07:20:16;10.98;;;7.93;;
26936;SDS011;14495;48.116;11.676;2022-08-20T07:22:42;13.57;;;7.95;;
26936;SDS011;14495;48.116;11.676;2022-08-20T07:25:09;10.77;;;7.97;;
26936;SDS011;14495;48.116;11.676;2022-08-20T07:27:38;10.90;;;8.27;;
26936;SDS011;14495;48.116;11.676;2022-08-20T07:30:05;12.02;;;7.65;;
26936;SDS011;14495;48.116;11.676;2022-08-20T07:32:51;12.75;;;8.68;;
26936;SDS011;14495;48.116;11.676;2022-08-20T07:35:17;11.88;;;8.18;;
26936;SDS011;14495;48.116;11.676;2022-08-20T07:37:44;12.32;;;8.93;;
26936;SDS011;14495;48.116;11.676;2022-08-20T07:40:17;10.43;;;7.18;;
26936;SDS011;14495;48.116;11.676;2022-08-20T07:42:44;10.27;;;7.65;;
26936;SDS011;14495;48.116;11.676;2022-08-20T07:45:13;11.57;;;7.47;;
26936;SDS011;14495;48.116;11.676;2022-08-20T07:47:39;11.75;;;7.28;;
26936;SDS011;14495;48.116;11.676;2022-08-20T07:50:06;13.18;;;7.88;;
26936;SDS011;14495;48.116;11.676;2022-08-20T07:52:33;9.57;;;7.50;;
26936;SDS011;14495;48.116;11.676;2022-08-20T07:55:00;11.80;;;7.50;;
26936;SDS011;14495;48.116;11.676;2022-08-20T07:57:26;10.13;;;7.15;;
26936;SDS011;14495;48.116;11.676;2022-08-20T07:59:52;10.32;;;7.28;;
26936;SDS011;14495;48.116;11.676;2022-08-20T08:02:17;9.27;;;6.55;;
26936;SDS011;14495;48.116;11.676;2022-08-20T08:04:42;11.82;;;7.85;;
26936;SDS011;14495;48.116;11.676;2022-08-20T08:07:08;11.18;;;7.38;;
26936;SDS011;14495;48.116;11.676;2022-08-20T08:09:34;10.38;;;7.65;;
26936;SDS011;14495;48.116;11.676;2022-08-20T08:12:00;10.65;;;7.70;;
26936;SDS011;14495;48.116;11.676;2022-08-20T08:14:28;11.63;;;7.07;;
26936;SDS011;14495;48.116;11.676;2022-08-20T08:16:58;9.98;;;7.60;;
26936;SDS011;14495;48.116;11.676;2022-08-20T08:19:27;9.48;;;6.85;;
26936;SDS011;14495;48.116;11.676;2022-08-20T08:22:02;11.15;;;7.22;;
26936;SDS011;14495;48.116;11.676;2022-08-20T08:24:28;11.38;;;7.60;;
26936;SDS011;14495;48.116;11.676;2022-08-20T08:26:53;12.65;;;7.97;;
26936;SDS011;14495;48.116;11.676;2022-08-20T08:29:19;10.25;;;7.07;;
26936;SDS011;14495;48.116;11.676;2022-08-20T08:31:44;9.65;;;7.25;;
26936;SDS011;14495;48.116;11.676;2022-08-20T08:34:10;11.80;;;6.90;;
26936;SDS011;14495;48.116;11.676;2022-08-20T08:36:35;10.15;;;7.30;;
26936;SDS011;14495;48.116;11.676;2022-08-20T08:39:03;10.77;;;7.90;;
26936;SDS011;14495;48.116;11.676;2022-08-20T08:44:07;9.65;;;7.18;;
26936;SDS011;14495;48.116;11.676;2022-08-20T08:46:38;9.52;;;7.07;;
26936;SDS011;14495;48.116;11.676;2022-08-20T08:49:06;10.07;;;7.75;;
26936;SDS011;14495;48.116;11.676;2022-08-20T08:51:37;10.02;;;6.95;;
26936;SDS011;14495;48.116;11.676;2022-08-20T08:54:11;11.18;;;7.50;;
26936;SDS011;14495;48.116;11.676;2022-08-20T08:56:41;10.20;;;7.40;;
26936;SDS011;14495;48.116;11.676;2022-08-20T08:59:07;11.82;;;7.22;;
26936;SDS011;14495;48.116;11.676;2022-08-20T09:01:38;16.30;;;9.35;;
26936;SDS011;14495;48.116;11.676;2022-08-20T09:04:09;12.85;;;8.65;;
26936;SDS011;14495;48.116;11.676;2022-08-20T09:06:36;12.10;;;8.05;;
26936;SDS011;14495;48.116;11.676;2022-08-20T09:09:03;10.30;;;7.78;;
26936;SDS011;14495;48.116;11.676;2022-08-20T09:11:30;10.98;;;8.20;;
26936;SDS011;14495;48.116;11.676;2022-08-20T09:13:56;13.45;;;8.60;;
26936;SDS011;14495;48.116;11.676;2022-08-20T09:16:23;11.90;;;8.68;;
26936;SDS011;14495;48.116;11.676;2022-08-20T09:18:49;10.55;;;8.52;;
26936;SDS011;14495;48.116;11.676;2022-08-20T09:21:15;11.07;;;8.63;;
26936;SDS011;14495;48.116;11.676;2022-08-20T09:23:42;10.32;;;7.95;;
26936;SDS011;14495;48.116;11.676;2022-08-20T09:26:07;14.15;;;8.77;;
26936;SDS011;14495;48.116;11.676;2022-08-20T09:28:33;15.20;;;9.00;;
26936;SDS011;14495;48.116;11.676;2022-08-20T09:30:59;11.82;;;8.95;;
26936;SDS011;14495;48.116;11.676;2022-08-20T09:33:25;11.00;;;8.57;;
26936;SDS011;14495;48.116;11.676;2022-08-20T09:35:51;10.88;;;8.93;;
26936;SDS011;14495;48.116;11.676;2022-08-20T09:38:16;13.20;;;8.63;;
26936;SDS011;14495;48.116;11.676;2022-08-20T09:40:41;11.20;;;8.38;;
26936;SDS011;14495;48.116;11.676;2022-08-20T09:43:08;12.82;;;9.35;;
26936;SDS011;14495;48.116;11.676;2022-08-20T09:45:34;14.52;;;8.90;;
26936;SDS011;14495;48.116;11.676;2022-08-20T09:48:00;11.25;;;8.70;;
26936;SDS011;14495;48.116;11.676;2022-08-20T09:50:27;11.98;;;9.07;;
26936;SDS011;14495;48.116;11.676;2022-08-20T09:52:54;12.52;;;9.50;;
26936;SDS011;14495;48.116;11.676;2022-08-20T09:55:37;13.85;;;8.75;;
26936;SDS011;14495;48.116;11.676;2022-08-20T09:58:06;12.52;;;8.52;;
26936;SDS011;14495;48.116;11.676;2022-08-20T10:00:38;12.82;;;9.07;;
26936;SDS011;14495;48.116;11.676;2022-08-20T10:03:04;11.75;;;8.68;;
26936;SDS011;14495;48.116;11.676;2022-08-20T10:05:29;12.05;;;9.07;;
26936;SDS011;14495;48.116;11.676;2022-08-20T10:07:55;11.52;;;8.98;;
26936;SDS011;14495;48.116;11.676;2022-08-20T10:10:21;13.25;;;9.30;;
26936;SDS011;14495;48.116;11.676;2022-08-20T10:12:46;12.30;;;9.30;;
26936;SDS011;14495;48.116;11.676;2022-08-20T10:15:11;13.38;;;9.00;;
26936;SDS011;14495;48.116;11.676;2022-08-20T10:17:38;10.40;;;8.18;;
26936;SDS011;14495;48.116;11.676;2022-08-20T10:20:05;12.05;;;9.50;;
26936;SDS011;14495;48.116;11.676;2022-08-20T10:22:32;11.82;;;8.80;;
26936;SDS011;14495;48.116;11.676;2022-08-20T10:24:57;11.45;;;8.60;;
26936;SDS011;14495;48.116;11.676;2022-08-20T10:27:23;12.02;;;9.35;;
26936;SDS011;14495;48.116;11.676;2022-08-20T10:29:49;12.13;;;9.70;;
26936;SDS011;14495;48.116;11.676;2022-08-20T10:32:14;10.20;;;8.52;;
26936;SDS011;14495;48.116;11.676;2022-08-20T10:34:41;10.82;;;9.20;;
26936;SDS011;14495;48.116;11.676;2022-08-20T10:37:11;11.95;;;8.52;;
26936;SDS011;14495;48.116;11.676;2022-08-20T10:39:39;10.48;;;8.23;;
26936;SDS011;14495;48.116;11.676;2022-08-20T10:42:05;11.55;;;8.65;;
26936;SDS011;14495;48.116;11.676;2022-08-20T10:44:30;11.68;;;8.85;;
26936;SDS011;14495;48.116;11.676;2022-08-20T10:46:55;14.10;;;9.45;;
26936;SDS011;14495;48.116;11.676;2022-08-20T10:49:21;11.77;;;8.60;;
26936;SDS011;14495;48.116;11.676;2022-08-20T10:51:46;11.98;;;8.65;;
26936;SDS011;14495;48.116;11.676;2022-08-20T10:54:11;12.20;;;9.10;;
26936;SDS011;14495;48.116;11.676;2022-08-20T10:56:37;10.73;;;8.55;;
26936;SDS011;14495;48.116;11.676;2022-08-20T10:59:02;11.88;;;8.63;;
26936;SDS011;14495;48.116;11.676;2022-08-20T11:01:27;10.13;;;8.55;;
26936;SDS011;14495;48.116;11.676;2022-08-20T11:03:53;11.35;;;8.90;;
26936;SDS011;14495;48.116;11.676;2022-08-20T11:06:18;13.23;;;8.75;;
26936;SDS011;14495;48.116;11.676;2022-08-20T11:08:43;10.95;;;9.05;;
26936;SDS011;14495;48.116;11.676;2022-08-20T11:11:09;10.85;;;9.43;;
26936;SDS011;14495;48.116;11.676;2022-08-20T11:13:34;14.32;;;10.27;;
26936;SDS011;14495;48.116;11.676;2022-08-20T11:16:01;10.75;;;8.68;;
26936;SDS011;14495;48.116;11.676;2022-08-20T11:18:28;12.90;;;9.18;;
26936;SDS011;14495;48.116;11.676;2022-08-20T11:20:54;9.60;;;8.57;;
26936;SDS011;14495;48.116;11.676;2022-08-20T11:23:20;12.13;;;10.38;;
26936;SDS011;14495;48.116;11.676;2022-08-20T11:25:45;12.50;;;9.95;;
26936;SDS011;14495;48.116;11.676;2022-08-20T11:28:11;14.38;;;9.95;;
26936;SDS011;14495;48.116;11.676;2022-08-20T11:30:37;14.85;;;10.27;;
26936;SDS011;14495;48.116;11.676;2022-08-20T11:33:03;13.70;;;9.98;;
26936;SDS011;14495;48.116;11.676;2022-08-20T11:35:29;13.50;;;10.52;;
26936;SDS011;14495;48.116;11.676;2022-08-20T11:37:59;10.98;;;8.75;;
26936;SDS011;14495;48.116;11.676;2022-08-20T11:40:25;14.15;;;9.73;;
26936;SDS011;14495;48.116;11.676;2022-08-20T11:42:51;13.02;;;9.68;;
26936;SDS011;14495;48.116;11.676;2022-08-20T11:45:16;13.70;;;9.80;;
26936;SDS011;14495;48.116;11.676;2022-08-20T11:47:42;11.10;;;9.23;;
26936;SDS011;14495;48.116;11.676;2022-08-20T11:52:35;13.52;;;9.27;;
26936;SDS011;14495;48.116;11.676;2022-08-20T11:55:00;12.32;;;9.43;;
26936;SDS011;14495;48.116;11.676;2022-08-20T11:57:27;13.32;;;10.10;;
26936;SDS011;14495;48.116;11.676;2022-08-20T11:59:55;10.82;;;9.20;;
26936;SDS011;14495;48.116;11.676;2022-08-20T12:02:22;11.68;;;8.93;;
26936;SDS011;14495;48.116;11.676;2022-08-20T12:04:48;9.90;;;8.77;;
26936;SDS011;14495;48.116;11.676;2022-08-20T12:07:14;10.90;;;8.43;;
26936;SDS011;14495;48.116;11.676;2022-08-20T12:09:42;10.40;;;8.07;;
26936;SDS011;14495;48.116;11.676;2022-08-20T12:12:08;10.23;;;8.77;;
26936;SDS011;14495;48.116;11.676;2022-08-20T12:14:34;11.38;;;8.70;;
26936;SDS011;14495;48.116;11.676;2022-08-20T12:17:13;11.90;;;9.95;;
26936;SDS011;14495;48.116;11.676;2022-08-20T12:19:43;11.75;;;9.50;;
26936;SDS011;14495;48.116;11.676;2022-08-20T12:22:09;12.73;;;9.05;;
26936;SDS011;14495;48.116;11.676;2022-08-20T12:24:35;13.90;;;9.00;;
26936;SDS011;14495;48.116;11.676;2022-08-20T12:27:14;10.70;;;8.23;;
26936;SDS011;14495;48.116;11.676;2022-08-20T12:29:42;9.45;;;8.05;;
26936;SDS011;14495;48.116;11.676;2022-08-20T12:32:09;11.70;;;8.45;;
26936;SDS011;14495;48.116;11.676;2022-08-20T12:34:36;9.85;;;8.00;;
26936;SDS011;14495;48.116;11.676;2022-08-20T12:37:04;9.73;;;7.95;;
26936;SDS011;14495;48.116;11.676;2022-08-20T12:39:40;8.52;;;7.35;;
26936;SDS011;14495;48.116;11.676;2022-08-20T12:42:07;9.02;;;7.78;;
26936;SDS011;14495;48.116;11.676;2022-08-20T12:44:34;6.97;;;5.80;;
26936;SDS011;14495;48.116;11.676;2022-08-20T12:47:07;9.35;;;6.00;;
26936;SDS011;14495;48.116;11.676;2022-08-20T12:49:35;6.38;;;5.78;;
26936;SDS011;14495;48.116;11.676;2022-08-20T12:52:01;7.25;;;6.38;;
26936;SDS011;14495;48.116;11.676;2022-08-20T12:54:26;6.72;;;5.75;;
26936;SDS011;14495;48.116;11.676;2022-08-20T12:56:52;5.90;;;4.82;;
26936;SDS011;14495;48.116;11.676;2022-08-20T12:59:17;6.20;;;4.78;;
26936;SDS011;14495;48.116;11.676;2022-08-20T13:01:43;4.95;;;4.18;;
26936;SDS011;14495;48.116;11.676;2022-08-20T13:04:08;6.70;;;5.45;;
26936;SDS011;14495;48.116;11.676;2022-08-20T13:06:34;7.22;;;5.55;;
26936;SDS011;14495;48.116;11.676;2022-08-20T13:08:59;6.70;;;4.47;;
26936;SDS011;14495;48.116;11.676;2022-08-20T13:11:25;9.32;;;4.32;;
26936;SDS011;14495;48.116;11.676;2022-08-20T13:13:50;4.68;;;4.13;;
26936;SDS011;14495;48.116;11.676;2022-08-20T13:16:15;6.25;;;4.57;;
26936;SDS011;14495;48.116;11.676;2022-08-20T13:18:41;5.80;;;4.38;;
26936;SDS011;14495;48.116;11.676;2022-08-20T13:21:06;5.43;;;4.15;;
26936;SDS011;14495;48.116;11.676;2022-08-20T13:23:32;6.25;;;4.75;;
26936;SDS011;14495;48.116;11.676;2022-08-20T13:25:57;5.97;;;4.10;;
26936;SDS011;14495;48.116;11.676;2022-08-20T13:28:22;5.75;;;4.78;;
26936;SDS011;14495;48.116;11.676;2022-08-20T13:30:47;5.15;;;4.50;;
26936;SDS011;14495;48.116;11.676;2022-08-20T13:33:13;6.55;;;4.82;;
26936;SDS011;14495;48.116;11.676;2022-08-20T13:35:38;4.93;;;4.03;;
26936;SDS011;14495;48.116;11.676;2022-08-20T13:38:04;5.82;;;4.55;;
26936;SDS011;14495;48.116;11.676;2022-08-20T13:40:29;5.60;;;4.60;;
26936;SDS011;14495;48.116;11.676;2022-08-20T13:42:55;5.35;;;4.75;;
26936;SDS011;14495;48.116;11.676;2022-08-20T13:45:20;5.70;;;4.35;;
26936;SDS011;14495;48.116;11.676;2022-08-20T13:47:46;6.00;;;4.25;;
26936;SDS011;14495;48.116;11.676;2022-08-20T13:50:18;5.10;;;3.90;;
26936;SDS011;14495;48.116;11.676;2022-08-20T13:52:45;5.88;;;3.88;;
26936;SDS011;14495;48.116;11.676;2022-08-20T13:55:13;4.15;;;3.25;;
26936;SDS011;14495;48.116;11.676;2022-08-20T13:57:40;5.32;;;4.50;;
26936;SDS011;14495;48.116;11.676;2022-08-20T14:00:08;7.97;;;6.10;;
26936;SDS011;14495;48.116;11.676;2022-08-20T14:02:37;5.90;;;3.45;;
26936;SDS011;14495;48.116;11.676;2022-08-20T14:05:03;4.00;;;3.38;;
26936;SDS011;14495;48.116;11.676;2022-08-20T14:07:29;5.63;;;3.55;;
26936;SDS011;14495;48.116;11.676;2022-08-20T14:10:38;4.32;;;3.30;;
26936;SDS011;14495;48.116;11.676;2022-08-20T14:12:48;3.17;;;2.80;;
26936;SDS011;14495;48.116;11.676;2022-08-20T14:15:14;3.13;;;2.70;;
26936;SDS011;14495;48.116;11.676;2022-08-20T14:17:41;3.92;;;3.28;;
26936;SDS011;14495;48.116;11.676;2022-08-20T14:20:14;4.65;;;3.42;;
26936;SDS011;14495;48.116;11.676;2022-08-20T14:22:41;4.20;;;3.15;;
26936;SDS011;14495;48.116;11.676;2022-08-20T14:25:08;4.63;;;3.17;;
26936;SDS011;14495;48.116;11.676;2022-08-20T14:27:35;5.20;;;3.70;;
26936;SDS011;14495;48.116;11.676;2022-08-20T14:30:02;4.30;;;3.63;;
26936;SDS011;14495;48.116;11.676;2022-08-20T14:32:29;6.20;;;3.08;;
26936;SDS011;14495;48.116;11.676;2022-08-20T14:34:54;4.63;;;1.70;;
26936;SDS011;14495;48.116;11.676;2022-08-20T14:37:24;5.97;;;1.33;;